sensor_id;sensor_type;location;lat;lon;timestamp;temperature;humidity
47252;DHT22;32991;51.374;11.586;2022-11-23T00:01:47;3.50;99.90
47252;DHT22;32991;51.374;11.586;2022-11-23T00:04:13;3.50;99.90
47252;DHT22;32991;51.374;11.586;2022-11-23T00:06:40;3.50;99.90
47252;DHT22;32991;51.374;11.586;2022-11-23T00:09:08;3.40;99.90
47252;DHT22;32991;51.374;11.586;2022-11-23T00:11:35;3.40;99.90
47252;DHT22;32991;51.374;11.586;2022-11-23T00:14:02;3.30;99.90
47252;DHT22;32991;51.374;11.586;2022-11-23T00:16:29;3.30;99.90
47252;DHT22;32991;51.374;11.586;2022-11-23T00:18:57;3.30;99.90
47252;DHT22;32991;51.374;11.586;2022-11-23T00:21:24;3.30;99.90
47252;DHT22;32991;51.374;11.586;2022-11-23T00:23:51;3.20;99.90
47252;DHT22;32991;51.374;11.586;2022-11-23T00:26:18;3.20;99.90
47252;DHT22;32991;51.374;11.586;2022-11-23T00:28:45;3.10;99.90
47252;DHT22;32991;51.374;11.586;2022-11-23T00:31:13;3.10;99.90
47252;DHT22;32991;51.374;11.586;2022-11-23T00:33:41;3.10;99.90
47252;DHT22;32991;51.374;11.586;2022-11-23T00:36:12;3.10;99.90
47252;DHT22;32991;51.374;11.586;2022-11-23T00:38:39;3.10;99.90
47252;DHT22;32991;51.374;11.586;2022-11-23T00:41:07;3.20;99.90
47252;DHT22;32991;51.374;11.586;2022-11-23T00:43:34;3.20;99.90
47252;DHT22;32991;51.374;11.586;2022-11-23T00:46:02;3.30;99.90
47252;DHT22;32991;51.374;11.586;2022-11-23T00:48:29;3.40;99.90
47252;DHT22;32991;51.374;11.586;2022-11-23T00:50:58;3.40;99.90
47252;DHT22;32991;51.374;11.586;2022-11-23T00:53:24;3.40;99.90
47252;DHT22;32991;51.374;11.586;2022-11-23T00:55:53;3.40;99.90
47252;DHT22;32991;51.374;11.586;2022-11-23T00:58:20;3.50;99.90
47252;DHT22;32991;51.374;11.586;2022-11-23T01:00:47;3.50;99.90
47252;DHT22;32991;51.374;11.586;2022-11-23T01:03:14;3.50;99.90
47252;DHT22;32991;51.374;11.586;2022-11-23T01:05:41;3.50;99.90
47252;DHT22;32991;51.374;11.586;2022-11-23T01:08:08;3.60;99.90
47252;DHT22;32991;51.374;11.586;2022-11-23T01:10:34;3.70;99.90
47252;DHT22;32991;51.374;11.586;2022-11-23T01:13:01;3.70;99.90
47252;DHT22;32991;51.374;11.586;2022-11-23T01:15:28;3.70;99.90
47252;DHT22;32991;51.374;11.586;2022-11-23T01:17:55;3.80;99.90
47252;DHT22;32991;51.374;11.586;2022-11-23T01:20:22;3.80;99.90
47252;DHT22;32991;51.374;11.586;2022-11-23T01:22:50;3.80;99.90
47252;DHT22;32991;51.374;11.586;2022-11-23T01:25:16;3.80;99.90
47252;DHT22;32991;51.374;11.586;2022-11-23T01:27:43;3.90;99.90
47252;DHT22;32991;51.374;11.586;2022-11-23T01:30:10;3.90;99.90
47252;DHT22;32991;51.374;11.586;2022-11-23T01:32:37;3.90;99.90
47252;DHT22;32991;51.374;11.586;2022-11-23T01:35:03;3.90;99.90
47252;DHT22;32991;51.374;11.586;2022-11-23T01:37:30;4.00;99.90
47252;DHT22;32991;51.374;11.586;2022-11-23T01:39:57;3.90;99.90
47252;DHT22;32991;51.374;11.586;2022-11-23T01:42:37;3.90;99.90
47252;DHT22;32991;51.374;11.586;2022-11-23T01:47:50;3.80;99.90
47252;DHT22;32991;51.374;11.586;2022-11-23T01:50:16;3.80;99.90
47252;DHT22;32991;51.374;11.586;2022-11-23T01:52:43;3.80;99.90
47252;DHT22;32991;51.374;11.586;2022-11-23T01:55:10;3.80;99.90
47252;DHT22;32991;51.374;11.586;2022-11-23T01:57:38;3.80;99.90
47252;DHT22;32991;51.374;11.586;2022-11-23T02:00:06;3.80;99.90
47252;DHT22;32991;51.374;11.586;2022-11-23T02:02:40;3.90;99.90
47252;DHT22;32991;51.374;11.586;2022-11-23T02:05:08;3.80;99.90
47252;DHT22;32991;51.374;11.586;2022-11-23T02:07:35;3.80;99.90
47252;DHT22;32991;51.374;11.586;2022-11-23T02:10:02;3.80;99.90
47252;DHT22;32991;51.374;11.586;2022-11-23T02:12:29;3.90;99.90
47252;DHT22;32991;51.374;11.586;2022-11-23T02:14:56;3.90;99.90
47252;DHT22;32991;51.374;11.586;2022-11-23T02:17:23;3.90;99.90
47252;DHT22;32991;51.374;11.586;2022-11-23T02:27:46;4.10;99.90
47252;DHT22;32991;51.374;11.586;2022-11-23T02:30:22;4.10;99.90
47252;DHT22;32991;51.374;11.586;2022-11-23T02:32:52;4.10;99.90
47252;DHT22;32991;51.374;11.586;2022-11-23T02:35:19;4.10;99.90
47252;DHT22;32991;51.374;11.586;2022-11-23T02:37:45;4.10;99.90
47252;DHT22;32991;51.374;11.586;2022-11-23T02:40:26;4.10;99.90
47252;DHT22;32991;51.374;11.586;2022-11-23T02:42:54;4.00;99.90
47252;DHT22;32991;51.374;11.586;2022-11-23T02:45:23;4.00;99.90
47252;DHT22;32991;51.374;11.586;2022-11-23T02:47:52;4.00;99.90
47252;DHT22;32991;51.374;11.586;2022-11-23T02:50:18;4.00;99.90
47252;DHT22;32991;51.374;11.586;2022-11-23T02:52:45;3.90;99.90
47252;DHT22;32991;51.374;11.586;2022-11-23T02:55:14;3.90;99.90
47252;DHT22;32991;51.374;11.586;2022-11-23T02:57:41;3.90;99.90
47252;DHT22;32991;51.374;11.586;2022-11-23T03:00:09;3.90;99.90
47252;DHT22;32991;51.374;11.586;2022-11-23T03:02:36;3.80;99.90
47252;DHT22;32991;51.374;11.586;2022-11-23T03:05:03;3.70;99.90
47252;DHT22;32991;51.374;11.586;2022-11-23T03:07:30;3.70;99.90
47252;DHT22;32991;51.374;11.586;2022-11-23T03:09:58;3.60;99.90
47252;DHT22;32991;51.374;11.586;2022-11-23T03:12:25;3.60;99.90
47252;DHT22;32991;51.374;11.586;2022-11-23T03:14:51;3.50;99.90
47252;DHT22;32991;51.374;11.586;2022-11-23T03:17:19;3.50;99.90
47252;DHT22;32991;51.374;11.586;2022-11-23T03:19:46;3.50;99.90
47252;DHT22;32991;51.374;11.586;2022-11-23T03:22:13;3.50;99.90
47252;DHT22;32991;51.374;11.586;2022-11-23T03:24:39;3.50;99.90
47252;DHT22;32991;51.374;11.586;2022-11-23T03:27:11;3.50;99.90
47252;DHT22;32991;51.374;11.586;2022-11-23T03:29:39;3.50;99.90
47252;DHT22;32991;51.374;11.586;2022-11-23T03:32:11;3.60;99.90
47252;DHT22;32991;51.374;11.586;2022-11-23T03:34:41;3.60;99.90
47252;DHT22;32991;51.374;11.586;2022-11-23T03:37:07;3.70;99.90
47252;DHT22;32991;51.374;11.586;2022-11-23T03:39:35;3.70;99.90
47252;DHT22;32991;51.374;11.586;2022-11-23T03:42:22;3.70;99.90
47252;DHT22;32991;51.374;11.586;2022-11-23T03:44:49;3.70;99.90
47252;DHT22;32991;51.374;11.586;2022-11-23T03:47:16;3.70;99.90
47252;DHT22;32991;51.374;11.586;2022-11-23T03:49:43;3.70;99.90
47252;DHT22;32991;51.374;11.586;2022-11-23T03:52:09;3.70;99.90
47252;DHT22;32991;51.374;11.586;2022-11-23T03:54:36;3.80;99.90
47252;DHT22;32991;51.374;11.586;2022-11-23T03:57:03;3.80;99.90
47252;DHT22;32991;51.374;11.586;2022-11-23T03:59:31;3.80;99.90
47252;DHT22;32991;51.374;11.586;2022-11-23T04:01:58;3.90;99.90
47252;DHT22;32991;51.374;11.586;2022-11-23T04:04:29;3.90;99.90
47252;DHT22;32991;51.374;11.586;2022-11-23T04:07:31;3.90;99.90
47252;DHT22;32991;51.374;11.586;2022-11-23T04:10:01;3.90;99.90
47252;DHT22;32991;51.374;11.586;2022-11-23T04:12:56;3.90;99.90
47252;DHT22;32991;51.374;11.586;2022-11-23T04:15:23;3.90;99.90
47252;DHT22;32991;51.374;11.586;2022-11-23T04:17:49;3.90;99.90
47252;DHT22;32991;51.374;11.586;2022-11-23T04:20:17;3.90;99.90
47252;DHT22;32991;51.374;11.586;2022-11-23T04:22:43;3.80;99.90
47252;DHT22;32991;51.374;11.586;2022-11-23T04:25:10;3.80;99.90
47252;DHT22;32991;51.374;11.586;2022-11-23T04:27:38;3.80;99.90
47252;DHT22;32991;51.374;11.586;2022-11-23T04:30:06;3.80;99.90
47252;DHT22;32991;51.374;11.586;2022-11-23T04:32:33;3.70;99.90
47252;DHT22;32991;51.374;11.586;2022-11-23T04:35:01;3.70;99.90
47252;DHT22;32991;51.374;11.586;2022-11-23T04:37:28;3.70;99.90
47252;DHT22;32991;51.374;11.586;2022-11-23T04:39:54;3.70;99.90
47252;DHT22;32991;51.374;11.586;2022-11-23T04:42:35;3.70;99.90
47252;DHT22;32991;51.374;11.586;2022-11-23T04:45:02;3.70;99.90
47252;DHT22;32991;51.374;11.586;2022-11-23T04:47:29;3.80;99.90
47252;DHT22;32991;51.374;11.586;2022-11-23T04:49:59;3.80;99.90
47252;DHT22;32991;51.374;11.586;2022-11-23T04:52:27;3.80;99.90
47252;DHT22;32991;51.374;11.586;2022-11-23T04:54:55;3.80;99.90
47252;DHT22;32991;51.374;11.586;2022-11-23T04:57:22;3.80;99.90
47252;DHT22;32991;51.374;11.586;2022-11-23T04:59:51;3.80;99.90
47252;DHT22;32991;51.374;11.586;2022-11-23T05:02:18;3.80;99.90
47252;DHT22;32991;51.374;11.586;2022-11-23T05:04:48;3.90;99.90
47252;DHT22;32991;51.374;11.586;2022-11-23T05:07:16;3.90;99.90
47252;DHT22;32991;51.374;11.586;2022-11-23T05:09:49;3.90;99.90
47252;DHT22;32991;51.374;11.586;2022-11-23T05:12:19;3.90;99.90
47252;DHT22;32991;51.374;11.586;2022-11-23T05:14:46;3.90;99.90
47252;DHT22;32991;51.374;11.586;2022-11-23T05:17:18;4.00;99.90
47252;DHT22;32991;51.374;11.586;2022-11-23T05:19:46;4.00;99.90
47252;DHT22;32991;51.374;11.586;2022-11-23T05:22:13;4.00;99.90
47252;DHT22;32991;51.374;11.586;2022-11-23T05:24:41;4.10;99.90
47252;DHT22;32991;51.374;11.586;2022-11-23T05:27:15;4.10;99.90
47252;DHT22;32991;51.374;11.586;2022-11-23T05:29:41;4.10;99.90
47252;DHT22;32991;51.374;11.586;2022-11-23T05:32:09;4.10;99.90
47252;DHT22;32991;51.374;11.586;2022-11-23T05:34:37;4.10;99.90
47252;DHT22;32991;51.374;11.586;2022-11-23T05:37:04;4.00;99.90
47252;DHT22;32991;51.374;11.586;2022-11-23T05:39:31;4.00;99.90
47252;DHT22;32991;51.374;11.586;2022-11-23T05:42:00;4.00;99.90
47252;DHT22;32991;51.374;11.586;2022-11-23T05:44:34;3.90;99.90
47252;DHT22;32991;51.374;11.586;2022-11-23T05:47:03;3.90;99.90
47252;DHT22;32991;51.374;11.586;2022-11-23T05:49:32;3.90;99.90
47252;DHT22;32991;51.374;11.586;2022-11-23T05:52:01;3.90;99.90
47252;DHT22;32991;51.374;11.586;2022-11-23T05:54:29;3.90;99.90
47252;DHT22;32991;51.374;11.586;2022-11-23T05:57:01;3.90;99.90
47252;DHT22;32991;51.374;11.586;2022-11-23T05:59:48;3.90;99.90
47252;DHT22;32991;51.374;11.586;2022-11-23T06:02:19;3.90;99.90
47252;DHT22;32991;51.374;11.586;2022-11-23T06:04:50;3.90;99.90
47252;DHT22;32991;51.374;11.586;2022-11-23T06:07:23;3.90;99.90
47252;DHT22;32991;51.374;11.586;2022-11-23T06:10:11;3.90;99.90
47252;DHT22;32991;51.374;11.586;2022-11-23T06:12:42;3.90;99.90
47252;DHT22;32991;51.374;11.586;2022-11-23T06:15:13;3.80;99.90
47252;DHT22;32991;51.374;11.586;2022-11-23T06:17:40;3.80;99.90
47252;DHT22;32991;51.374;11.586;2022-11-23T06:20:12;3.80;99.90
47252;DHT22;32991;51.374;11.586;2022-11-23T06:22:42;3.80;99.90
47252;DHT22;32991;51.374;11.586;2022-11-23T06:25:09;3.90;99.90
47252;DHT22;32991;51.374;11.586;2022-11-23T06:28:05;3.90;99.90
47252;DHT22;32991;51.374;11.586;2022-11-23T06:30:40;3.90;99.90
47252;DHT22;32991;51.374;11.586;2022-11-23T06:33:07;3.90;99.90
47252;DHT22;32991;51.374;11.586;2022-11-23T06:35:57;3.90;99.90
47252;DHT22;32991;51.374;11.586;2022-11-23T06:38:28;3.90;99.90
47252;DHT22;32991;51.374;11.586;2022-11-23T06:41:02;3.90;99.90
47252;DHT22;32991;51.374;11.586;2022-11-23T06:43:29;3.90;99.90
47252;DHT22;32991;51.374;11.586;2022-11-23T06:45:57;3.90;99.90
47252;DHT22;32991;51.374;11.586;2022-11-23T06:48:27;4.00;99.90
47252;DHT22;32991;51.374;11.586;2022-11-23T06:50:59;4.00;99.90
47252;DHT22;32991;51.374;11.586;2022-11-23T06:53:28;4.00;99.90
47252;DHT22;32991;51.374;11.586;2022-11-23T06:56:00;4.10;99.90
47252;DHT22;32991;51.374;11.586;2022-11-23T06:58:29;4.10;99.90
47252;DHT22;32991;51.374;11.586;2022-11-23T07:01:02;4.10;99.90
47252;DHT22;32991;51.374;11.586;2022-11-23T07:03:34;4.20;99.90
47252;DHT22;32991;51.374;11.586;2022-11-23T07:06:08;4.10;99.90
47252;DHT22;32991;51.374;11.586;2022-11-23T07:08:36;4.10;99.90
47252;DHT22;32991;51.374;11.586;2022-11-23T07:11:21;4.10;99.90
47252;DHT22;32991;51.374;11.586;2022-11-23T07:13:48;4.10;99.90
47252;DHT22;32991;51.374;11.586;2022-11-23T07:16:15;4.10;99.90
47252;DHT22;32991;51.374;11.586;2022-11-23T07:18:41;4.10;99.90
47252;DHT22;32991;51.374;11.586;2022-11-23T07:21:08;4.20;99.90
47252;DHT22;32991;51.374;11.586;2022-11-23T07:23:36;4.20;99.90
47252;DHT22;32991;51.374;11.586;2022-11-23T07:26:07;4.40;99.90
47252;DHT22;32991;51.374;11.586;2022-11-23T07:28:34;4.40;99.90
47252;DHT22;32991;51.374;11.586;2022-11-23T07:31:01;4.40;99.90
47252;DHT22;32991;51.374;11.586;2022-11-23T07:33:28;4.50;99.90
47252;DHT22;32991;51.374;11.586;2022-11-23T07:35:59;4.50;99.90
47252;DHT22;32991;51.374;11.586;2022-11-23T07:38:26;4.50;99.90
47252;DHT22;32991;51.374;11.586;2022-11-23T07:40:53;4.60;99.90
47252;DHT22;32991;51.374;11.586;2022-11-23T07:43:36;4.60;99.90
47252;DHT22;32991;51.374;11.586;2022-11-23T07:46:03;4.70;99.90
47252;DHT22;32991;51.374;11.586;2022-11-23T07:48:30;4.70;99.90
47252;DHT22;32991;51.374;11.586;2022-11-23T07:51:02;4.70;99.90
47252;DHT22;32991;51.374;11.586;2022-11-23T07:53:28;4.70;99.90
47252;DHT22;32991;51.374;11.586;2022-11-23T07:55:56;4.80;99.90
47252;DHT22;32991;51.374;11.586;2022-11-23T07:58:24;4.80;99.90
47252;DHT22;32991;51.374;11.586;2022-11-23T08:00:51;4.80;99.90
47252;DHT22;32991;51.374;11.586;2022-11-23T08:03:18;4.90;99.90
47252;DHT22;32991;51.374;11.586;2022-11-23T08:05:54;5.00;99.90
47252;DHT22;32991;51.374;11.586;2022-11-23T08:08:25;5.20;99.90
47252;DHT22;32991;51.374;11.586;2022-11-23T08:10:57;5.40;99.90
47252;DHT22;32991;51.374;11.586;2022-11-23T08:13:24;5.50;99.90
47252;DHT22;32991;51.374;11.586;2022-11-23T08:15:51;5.60;99.90
47252;DHT22;32991;51.374;11.586;2022-11-23T08:18:22;5.70;99.90
47252;DHT22;32991;51.374;11.586;2022-11-23T08:20:49;5.70;99.90
47252;DHT22;32991;51.374;11.586;2022-11-23T08:23:16;5.80;99.90
47252;DHT22;32991;51.374;11.586;2022-11-23T08:25:42;5.80;99.90
47252;DHT22;32991;51.374;11.586;2022-11-23T08:28:09;5.90;99.90
47252;DHT22;32991;51.374;11.586;2022-11-23T08:30:36;5.90;99.90
47252;DHT22;32991;51.374;11.586;2022-11-23T08:33:04;5.90;99.90
47252;DHT22;32991;51.374;11.586;2022-11-23T08:35:35;6.00;99.90
47252;DHT22;32991;51.374;11.586;2022-11-23T08:38:02;6.10;99.90
47252;DHT22;32991;51.374;11.586;2022-11-23T08:40:29;6.30;99.90
47252;DHT22;32991;51.374;11.586;2022-11-23T08:42:56;6.50;99.90
47252;DHT22;32991;51.374;11.586;2022-11-23T08:45:23;6.60;99.90
47252;DHT22;32991;51.374;11.586;2022-11-23T08:47:50;6.70;99.90
47252;DHT22;32991;51.374;11.586;2022-11-23T08:50:18;6.80;99.90
47252;DHT22;32991;51.374;11.586;2022-11-23T08:52:46;7.00;99.90
47252;DHT22;32991;51.374;11.586;2022-11-23T08:55:13;7.00;99.90
47252;DHT22;32991;51.374;11.586;2022-11-23T08:57:39;7.10;99.90
47252;DHT22;32991;51.374;11.586;2022-11-23T09:00:06;7.10;99.90
47252;DHT22;32991;51.374;11.586;2022-11-23T09:02:33;7.10;99.90
47252;DHT22;32991;51.374;11.586;2022-11-23T09:05:00;7.20;99.90
47252;DHT22;32991;51.374;11.586;2022-11-23T09:07:27;7.30;99.90
47252;DHT22;32991;51.374;11.586;2022-11-23T09:09:54;7.40;99.90
47252;DHT22;32991;51.374;11.586;2022-11-23T09:12:21;7.60;99.90
47252;DHT22;32991;51.374;11.586;2022-11-23T09:14:47;8.90;99.90
47252;DHT22;32991;51.374;11.586;2022-11-23T09:17:14;10.80;99.90
47252;DHT22;32991;51.374;11.586;2022-11-23T09:19:41;12.70;99.90
47252;DHT22;32991;51.374;11.586;2022-11-23T09:22:07;14.00;99.90
47252;DHT22;32991;51.374;11.586;2022-11-23T09:24:34;15.10;99.90
47252;DHT22;32991;51.374;11.586;2022-11-23T09:27:02;15.40;99.90
47252;DHT22;32991;51.374;11.586;2022-11-23T09:29:28;14.50;99.90
47252;DHT22;32991;51.374;11.586;2022-11-23T09:31:55;13.30;99.90
47252;DHT22;32991;51.374;11.586;2022-11-23T09:34:22;12.40;99.90
47252;DHT22;32991;51.374;11.586;2022-11-23T09:36:48;11.50;99.90
47252;DHT22;32991;51.374;11.586;2022-11-23T09:39:15;11.00;99.90
47252;DHT22;32991;51.374;11.586;2022-11-23T09:41:52;10.60;99.90
47252;DHT22;32991;51.374;11.586;2022-11-23T09:49:37;12.20;99.90
47252;DHT22;32991;51.374;11.586;2022-11-23T09:52:13;12.50;99.90
47252;DHT22;32991;51.374;11.586;2022-11-23T09:54:40;12.50;99.90
47252;DHT22;32991;51.374;11.586;2022-11-23T09:57:08;12.30;99.90
47252;DHT22;32991;51.374;11.586;2022-11-23T09:59:43;12.00;99.90
47252;DHT22;32991;51.374;11.586;2022-11-23T10:02:16;12.40;99.90
47252;DHT22;32991;51.374;11.586;2022-11-23T10:04:45;13.60;99.90
47252;DHT22;32991;51.374;11.586;2022-11-23T10:15:10;13.70;99.90
47252;DHT22;32991;51.374;11.586;2022-11-23T10:18:40;13.00;99.90
47252;DHT22;32991;51.374;11.586;2022-11-23T10:23:00;11.80;99.90
47252;DHT22;32991;51.374;11.586;2022-11-23T10:25:28;11.30;99.90
47252;DHT22;32991;51.374;11.586;2022-11-23T10:28:11;10.90;99.90
47252;DHT22;32991;51.374;11.586;2022-11-23T10:30:38;10.40;99.90
47252;DHT22;32991;51.374;11.586;2022-11-23T10:33:20;10.00;99.90
47252;DHT22;32991;51.374;11.586;2022-11-23T10:35:52;9.60;99.90
47252;DHT22;32991;51.374;11.586;2022-11-23T10:38:19;9.40;99.90
47252;DHT22;32991;51.374;11.586;2022-11-23T10:43:20;9.10;99.90
47252;DHT22;32991;51.374;11.586;2022-11-23T10:45:48;9.00;99.90
47252;DHT22;32991;51.374;11.586;2022-11-23T10:48:32;9.00;99.90
47252;DHT22;32991;51.374;11.586;2022-11-23T10:51:15;8.90;99.90
47252;DHT22;32991;51.374;11.586;2022-11-23T10:53:49;8.80;99.90
47252;DHT22;32991;51.374;11.586;2022-11-23T10:56:16;8.80;99.90
47252;DHT22;32991;51.374;11.586;2022-11-23T10:58:43;8.80;99.90
47252;DHT22;32991;51.374;11.586;2022-11-23T11:01:11;8.80;99.90
47252;DHT22;32991;51.374;11.586;2022-11-23T11:03:39;8.80;99.90
47252;DHT22;32991;51.374;11.586;2022-11-23T11:06:06;8.80;99.90
47252;DHT22;32991;51.374;11.586;2022-11-23T11:08:36;8.80;99.90
47252;DHT22;32991;51.374;11.586;2022-11-23T11:11:24;8.90;99.90
47252;DHT22;32991;51.374;11.586;2022-11-23T11:14:00;8.90;99.90
47252;DHT22;32991;51.374;11.586;2022-11-23T11:16:34;8.90;99.90
47252;DHT22;32991;51.374;11.586;2022-11-23T11:19:19;9.10;99.90
47252;DHT22;32991;51.374;11.586;2022-11-23T11:21:50;9.20;99.90
47252;DHT22;32991;51.374;11.586;2022-11-23T11:24:54;9.30;99.90
47252;DHT22;32991;51.374;11.586;2022-11-23T11:27:22;9.40;99.90
47252;DHT22;32991;51.374;11.586;2022-11-23T11:29:50;9.50;99.90
47252;DHT22;32991;51.374;11.586;2022-11-23T11:32:38;9.50;99.90
47252;DHT22;32991;51.374;11.586;2022-11-23T11:37:46;9.40;99.90
47252;DHT22;32991;51.374;11.586;2022-11-23T11:40:18;9.40;99.90
47252;DHT22;32991;51.374;11.586;2022-11-23T11:42:49;9.50;99.90
47252;DHT22;32991;51.374;11.586;2022-11-23T11:45:39;9.50;99.90
47252;DHT22;32991;51.374;11.586;2022-11-23T11:48:15;9.50;99.90
47252;DHT22;32991;51.374;11.586;2022-11-23T11:53:18;9.50;99.90
47252;DHT22;32991;51.374;11.586;2022-11-23T11:58:15;9.50;99.90
47252;DHT22;32991;51.374;11.586;2022-11-23T12:00:43;9.60;99.90
47252;DHT22;32991;51.374;11.586;2022-11-23T12:03:58;9.60;99.90
47252;DHT22;32991;51.374;11.586;2022-11-23T12:06:01;9.70;99.90
47252;DHT22;32991;51.374;11.586;2022-11-23T12:08:32;9.80;99.90
47252;DHT22;32991;51.374;11.586;2022-11-23T12:11:01;9.90;99.90
47252;DHT22;32991;51.374;11.586;2022-11-23T12:13:31;10.00;99.90
47252;DHT22;32991;51.374;11.586;2022-11-23T12:21:16;10.40;99.90
47252;DHT22;32991;51.374;11.586;2022-11-23T12:26:40;10.60;99.90
47252;DHT22;32991;51.374;11.586;2022-11-23T12:34:55;10.80;99.90
47252;DHT22;32991;51.374;11.586;2022-11-23T12:37:38;10.80;99.90
47252;DHT22;32991;51.374;11.586;2022-11-23T12:51:17;10.30;99.90
47252;DHT22;32991;51.374;11.586;2022-11-23T12:59:17;10.30;99.90
47252;DHT22;32991;51.374;11.586;2022-11-23T13:01:47;10.30;99.90
47252;DHT22;32991;51.374;11.586;2022-11-23T13:04:20;10.30;99.90
47252;DHT22;32991;51.374;11.586;2022-11-23T13:18:05;10.60;99.90
47252;DHT22;32991;51.374;11.586;2022-11-23T13:20:44;10.60;99.90
47252;DHT22;32991;51.374;11.586;2022-11-23T13:23:15;10.60;99.90
47252;DHT22;32991;51.374;11.586;2022-11-23T13:28:32;10.60;99.90
47252;DHT22;32991;51.374;11.586;2022-11-23T13:33:42;10.60;99.90
47252;DHT22;32991;51.374;11.586;2022-11-23T13:39:59;10.70;99.90
47252;DHT22;32991;51.374;11.586;2022-11-23T13:42:14;10.70;99.90
47252;DHT22;32991;51.374;11.586;2022-11-23T13:44:41;10.60;99.90
47252;DHT22;32991;51.374;11.586;2022-11-23T13:49:43;10.40;99.90
47252;DHT22;32991;51.374;11.586;2022-11-23T13:54:54;9.90;99.90
47252;DHT22;32991;51.374;11.586;2022-11-23T13:57:22;9.60;99.90
47252;DHT22;32991;51.374;11.586;2022-11-23T13:59:49;9.30;99.90
47252;DHT22;32991;51.374;11.586;2022-11-23T14:02:24;9.10;99.90
47252;DHT22;32991;51.374;11.586;2022-11-23T14:04:52;8.90;99.90
47252;DHT22;32991;51.374;11.586;2022-11-23T14:07:30;8.80;99.90
47252;DHT22;32991;51.374;11.586;2022-11-23T14:10:03;8.70;99.90
47252;DHT22;32991;51.374;11.586;2022-11-23T14:15:22;8.50;99.90
47252;DHT22;32991;51.374;11.586;2022-11-23T14:23:18;8.20;99.90
47252;DHT22;32991;51.374;11.586;2022-11-23T14:25:57;8.10;99.90
47252;DHT22;32991;51.374;11.586;2022-11-23T14:28:44;8.00;99.90
47252;DHT22;32991;51.374;11.586;2022-11-23T14:33:54;7.80;99.90
47252;DHT22;32991;51.374;11.586;2022-11-23T14:39:24;7.70;99.90
47252;DHT22;32991;51.374;11.586;2022-11-23T14:42:02;7.60;99.90
47252;DHT22;32991;51.374;11.586;2022-11-23T14:44:31;7.50;99.90
47252;DHT22;32991;51.374;11.586;2022-11-23T14:47:05;7.40;99.90
47252;DHT22;32991;51.374;11.586;2022-11-23T14:49:32;7.30;99.90
47252;DHT22;32991;51.374;11.586;2022-11-23T14:51:59;7.20;99.90
47252;DHT22;32991;51.374;11.586;2022-11-23T14:54:29;7.10;99.90
47252;DHT22;32991;51.374;11.586;2022-11-23T14:56:59;7.00;99.90
47252;DHT22;32991;51.374;11.586;2022-11-23T15:02:01;6.90;99.90
47252;DHT22;32991;51.374;11.586;2022-11-23T15:04:31;6.70;99.90
47252;DHT22;32991;51.374;11.586;2022-11-23T15:07:04;6.70;99.90
47252;DHT22;32991;51.374;11.586;2022-11-23T15:12:05;6.50;99.90
47252;DHT22;32991;51.374;11.586;2022-11-23T15:14:33;6.50;99.90
47252;DHT22;32991;51.374;11.586;2022-11-23T15:17:20;6.40;99.90
47252;DHT22;32991;51.374;11.586;2022-11-23T15:19:53;6.30;99.90
47252;DHT22;32991;51.374;11.586;2022-11-23T15:22:20;6.20;99.90
47252;DHT22;32991;51.374;11.586;2022-11-23T15:24:47;6.10;99.90
47252;DHT22;32991;51.374;11.586;2022-11-23T15:27:21;6.00;99.90
47252;DHT22;32991;51.374;11.586;2022-11-23T15:29:51;6.00;99.90
47252;DHT22;32991;51.374;11.586;2022-11-23T15:35:05;5.80;99.90
47252;DHT22;32991;51.374;11.586;2022-11-23T15:37:36;5.80;99.90
47252;DHT22;32991;51.374;11.586;2022-11-23T15:40:10;5.70;99.90
47252;DHT22;32991;51.374;11.586;2022-11-23T15:42:37;5.70;99.90
47252;DHT22;32991;51.374;11.586;2022-11-23T15:45:04;5.50;99.90
47252;DHT22;32991;51.374;11.586;2022-11-23T15:47:31;5.40;99.90
47252;DHT22;32991;51.374;11.586;2022-11-23T15:50:02;5.40;99.90
47252;DHT22;32991;51.374;11.586;2022-11-23T15:52:33;5.30;99.90
47252;DHT22;32991;51.374;11.586;2022-11-23T15:55:04;5.20;99.90
47252;DHT22;32991;51.374;11.586;2022-11-23T15:57:35;5.20;99.90
47252;DHT22;32991;51.374;11.586;2022-11-23T16:00:03;5.10;99.90
47252;DHT22;32991;51.374;11.586;2022-11-23T16:02:37;5.00;99.90
47252;DHT22;32991;51.374;11.586;2022-11-23T16:07:31;5.00;99.90
47252;DHT22;32991;51.374;11.586;2022-11-23T16:13:02;5.00;99.90
47252;DHT22;32991;51.374;11.586;2022-11-23T16:15:31;5.00;99.90
47252;DHT22;32991;51.374;11.586;2022-11-23T16:18:02;5.00;99.90
47252;DHT22;32991;51.374;11.586;2022-11-23T16:20:29;5.00;99.90
47252;DHT22;32991;51.374;11.586;2022-11-23T16:22:56;5.00;99.90
47252;DHT22;32991;51.374;11.586;2022-11-23T16:25:34;4.90;99.90
47252;DHT22;32991;51.374;11.586;2022-11-23T16:28:02;4.90;99.90
47252;DHT22;32991;51.374;11.586;2022-11-23T16:30:34;4.90;99.90
47252;DHT22;32991;51.374;11.586;2022-11-23T16:33:02;4.80;99.90
47252;DHT22;32991;51.374;11.586;2022-11-23T16:35:29;4.80;99.90
47252;DHT22;32991;51.374;11.586;2022-11-23T16:37:56;4.80;99.90
47252;DHT22;32991;51.374;11.586;2022-11-23T16:40:22;4.80;99.90
47252;DHT22;32991;51.374;11.586;2022-11-23T16:42:50;4.80;99.90
47252;DHT22;32991;51.374;11.586;2022-11-23T16:45:16;4.80;99.90
47252;DHT22;32991;51.374;11.586;2022-11-23T16:47:50;4.80;99.90
47252;DHT22;32991;51.374;11.586;2022-11-23T16:50:17;4.70;99.90
47252;DHT22;32991;51.374;11.586;2022-11-23T16:52:44;4.70;99.90
47252;DHT22;32991;51.374;11.586;2022-11-23T16:55:11;4.60;99.90
47252;DHT22;32991;51.374;11.586;2022-11-23T16:57:38;4.50;99.90
47252;DHT22;32991;51.374;11.586;2022-11-23T17:00:06;4.40;99.90
47252;DHT22;32991;51.374;11.586;2022-11-23T17:02:33;4.40;99.90
47252;DHT22;32991;51.374;11.586;2022-11-23T17:05:00;4.40;99.90
47252;DHT22;32991;51.374;11.586;2022-11-23T17:07:27;4.40;99.90
47252;DHT22;32991;51.374;11.586;2022-11-23T17:09:54;4.40;99.90
47252;DHT22;32991;51.374;11.586;2022-11-23T17:12:21;4.40;99.90
47252;DHT22;32991;51.374;11.586;2022-11-23T17:14:48;4.40;99.90
47252;DHT22;32991;51.374;11.586;2022-11-23T17:17:19;4.40;99.90
47252;DHT22;32991;51.374;11.586;2022-11-23T17:19:49;4.40;99.90
47252;DHT22;32991;51.374;11.586;2022-11-23T17:22:17;4.40;99.90
47252;DHT22;32991;51.374;11.586;2022-11-23T17:24:44;4.50;99.90
47252;DHT22;32991;51.374;11.586;2022-11-23T17:27:19;4.40;99.90
47252;DHT22;32991;51.374;11.586;2022-11-23T17:29:47;4.40;99.90
47252;DHT22;32991;51.374;11.586;2022-11-23T17:32:16;4.30;99.90
47252;DHT22;32991;51.374;11.586;2022-11-23T17:34:43;4.30;99.90
47252;DHT22;32991;51.374;11.586;2022-11-23T17:37:17;4.20;99.90
47252;DHT22;32991;51.374;11.586;2022-11-23T17:39:45;4.10;99.90
47252;DHT22;32991;51.374;11.586;2022-11-23T17:42:13;4.00;99.90
47252;DHT22;32991;51.374;11.586;2022-11-23T17:44:39;4.00;99.90
47252;DHT22;32991;51.374;11.586;2022-11-23T17:47:13;3.90;99.90